Time;durP1;ratioP1;P1;durP2;ratioP2;P2;SDS_P1;SDS_P2;PMS_P1;PMS_P2;Temp;Humidity;BMP_temperature;BMP_pressure;BME280_temperature;BME280_humidity;BME280_pressure;Samples;Min_cycle;Max_cycle;Signal;HPM_P1;HPM_P2
2022/01/24 00:00:28;;;;;;;14.23;12.73;;;1.10;99.90;;;1.75;99.94;99512.75;5180436;28;20223;-64
2022/01/24 00:03:02;;;;;;;13.03;11.70;;;1.10;99.90;;;1.74;99.61;99514.34;5184960;28;20641;-64
2022/01/24 00:05:35;;;;;;;12.60;11.30;;;1.00;99.90;;;1.71;100.00;99516.50;5180686;28;20582;-64
2022/01/24 00:08:08;;;;;;;13.33;12.03;;;1.00;99.90;;;1.71;100.00;99513.09;5182538;28;20226;-64
2022/01/24 00:10:41;;;;;;;13.17;11.83;;;1.00;99.90;;;1.66;100.00;99517.59;5180186;28;20233;-63
2022/01/24 00:13:52;;;;;;;12.40;11.17;;;0.90;99.90;;;1.69;100.00;99507.88;5178502;28;20223;-64
2022/01/24 00:16:24;;;;;;;12.17;10.97;;;0.90;99.90;;;1.62;99.76;99507.88;5176110;28;20232;-64
2022/01/24 00:27:44;;;;;;;13.57;12.17;;;0.80;99.90;;;1.49;100.00;99509.69;5139619;28;20226;-64
2022/01/24 00:30:18;;;;;;;15.67;13.90;;;0.80;99.90;;;1.39;99.79;99499.22;5139143;28;20220;-64
2022/01/24 00:32:52;;;;;;;14.23;12.37;;;0.70;99.90;;;1.32;99.58;99503.53;5154880;28;20224;-64
2022/01/24 00:35:25;;;;;;;11.60;10.50;;;0.70;99.90;;;1.37;98.55;99505.69;5183593;28;20229;-64
2022/01/24 00:38:01;;;;;;;11.87;10.20;;;0.60;99.90;;;1.25;97.82;99506.03;5181147;28;20214;-65
2022/01/24 00:40:38;;;;;;;12.17;10.97;;;0.40;99.90;;;1.08;97.33;99508.13;5183349;28;20257;-64
2022/01/24 00:43:20;;;;;;;12.17;10.93;;;0.30;99.90;;;1.00;99.05;99506.31;5179689;28;20233;-66
2022/01/24 00:45:59;;;;;;;11.83;10.50;;;0.30;99.90;;;0.92;98.93;99507.00;5175394;28;20233;-64
2022/01/24 00:48:58;;;;;;;11.47;10.30;;;0.30;99.90;;;0.89;99.32;99513.50;5179078;28;20220;-65
2022/01/24 00:57:13;;;;;;;12.13;10.93;;;0.30;99.90;;;0.87;99.73;99514.91;5181796;28;20240;-65
2022/01/24 00:59:46;;;;;;;13.20;11.73;;;0.20;99.90;;;0.89;99.77;99513.50;5181294;28;20242;-64
2022/01/24 01:02:20;;;;;;;13.47;11.50;;;0.30;99.90;;;0.92;99.75;99518.00;5181732;28;20232;-64
2022/01/24 01:05:06;;;;;;;12.87;11.47;;;0.30;99.90;;;0.96;100.00;99514.22;5181317;28;20358;-64
2022/01/24 01:07:52;;;;;;;13.67;12.17;;;0.30;99.90;;;0.84;100.00;99518.69;5180097;28;20590;-64
2022/01/24 01:18:58;;;;;;;14.43;11.87;;;0.20;99.90;;;0.81;100.00;99521.72;5186609;28;20221;-64
2022/01/24 01:21:33;;;;;;;12.83;11.53;;;0.20;99.90;;;0.81;100.00;99524.25;5178477;28;20225;-64
2022/01/24 01:24:07;;;;;;;14.77;11.80;;;0.10;99.90;;;0.90;99.75;99515.28;5181555;28;20231;-64
2022/01/24 01:26:44;;;;;;;13.57;11.67;;;0.10;99.90;;;0.76;99.51;99522.78;5177286;28;20220;-64
2022/01/24 01:29:25;;;;;;;13.43;12.03;;;0.10;99.90;;;0.77;100.00;99527.09;5180974;28;20225;-64
2022/01/24 01:32:09;;;;;;;13.23;12.03;;;0.20;99.90;;;0.75;100.00;99530.16;5182265;28;20687;-64
2022/01/24 01:35:08;;;;;;;14.40;11.57;;;0.10;99.90;;;0.76;100.00;99519.38;5184246;28;20881;-64
2022/01/24 01:38:01;;;;;;;12.97;11.57;;;0.20;99.90;;;0.75;100.00;99518.47;5182825;28;20244;-64
2022/01/24 01:52:30;;;;;;;13.57;12.17;;;0.20;99.90;;;0.79;100.00;99525.66;5113702;29;20212;-64
2022/01/24 01:55:25;;;;;;;15.03;12.63;;;0.20;99.90;;;0.86;100.00;99522.28;5175373;28;20595;-64
2022/01/24 01:57:58;;;;;;;13.97;12.07;;;0.30;99.90;;;0.87;100.00;99509.88;5186070;28;20733;-64
2022/01/24 02:00:31;;;;;;;14.50;12.23;;;0.30;99.90;;;0.93;100.00;99508.81;5183777;28;20225;-64
2022/01/24 02:03:04;;;;;;;13.60;12.20;;;0.30;99.90;;;0.98;100.00;99506.16;5184662;28;20265;-64
2022/01/24 02:05:38;;;;;;;13.27;11.73;;;0.40;99.90;;;1.04;100.00;99498.44;5185875;28;20221;-64
2022/01/24 02:08:11;;;;;;;14.10;12.17;;;0.40;99.90;;;1.02;100.00;99503.28;5184722;28;20225;-64
2022/01/24 02:10:46;;;;;;;14.23;12.40;;;0.40;99.90;;;1.03;100.00;99496.59;5184620;28;20608;-64
2022/01/24 02:13:19;;;;;;;14.03;12.60;;;0.40;99.90;;;1.09;100.00;99493.22;5183424;28;20286;-64
2022/01/24 02:16:01;;;;;;;13.00;11.60;;;0.50;99.90;;;1.08;100.00;99491.41;5186286;28;20229;-64
2022/01/24 02:18:40;;;;;;;13.87;12.20;;;0.50;99.90;;;1.17;100.00;99494.13;5183855;28;20222;-64
2022/01/24 02:21:28;;;;;;;14.43;12.37;;;0.60;99.90;;;1.16;100.00;99494.84;5184398;28;20226;-64
2022/01/24 02:24:01;;;;;;;13.90;12.10;;;0.60;99.90;;;1.25;100.00;99482.47;5184774;28;20226;-64
2022/01/24 02:26:34;;;;;;;14.83;13.23;;;0.60;99.90;;;1.33;100.00;99481.75;5186225;28;20746;-64
2022/01/24 02:29:13;;;;;;;14.47;12.97;;;0.70;99.90;;;1.41;100.00;99485.19;5183489;28;20236;-64
2022/01/24 02:31:48;;;;;;;15.20;13.50;;;0.80;99.90;;;1.43;100.00;99481.22;5179234;28;20217;-64
2022/01/24 02:34:30;;;;;;;12.67;11.37;;;0.90;99.90;;;1.46;100.00;99482.50;5180941;28;20214;-65
2022/01/24 02:37:07;;;;;;;13.73;12.30;;;0.80;99.90;;;1.48;100.00;99473.47;5187083;28;20701;-64
2022/01/24 02:39:51;;;;;;;12.87;11.43;;;0.80;99.90;;;1.53;100.00;99479.97;5180766;28;20222;-65
2022/01/24 02:48:25;;;;;;;12.47;11.20;;;0.90;99.90;;;1.62;100.00;99460.00;5204630;23;20716;-62
2022/01/24 02:51:27;;;;;;;13.70;11.67;;;0.90;99.90;;;1.65;100.00;99454.41;5182599;28;20218;-62
2022/01/24 02:54:02;;;;;;;12.10;10.87;;;1.00;99.90;;;1.63;100.00;99451.72;5183754;28;20225;-61
2022/01/24 02:56:35;;;;;;;14.67;11.37;;;0.90;99.90;;;1.67;100.00;99442.91;5183866;28;20222;-63
2022/01/24 02:59:08;;;;;;;12.97;10.63;;;1.00;99.90;;;1.64;100.00;99440.91;5186594;28;20229;-63
2022/01/24 03:01:42;;;;;;;13.87;11.70;;;1.00;99.90;;;1.75;100.00;99448.13;5184245;28;20241;-61
2022/01/24 03:04:16;;;;;;;12.40;11.20;;;1.10;99.90;;;1.72;99.96;99434.28;5184554;28;20594;-61
2022/01/24 03:06:49;;;;;;;13.33;11.40;;;1.00;99.90;;;1.62;99.59;99433.91;5183854;28;20309;-65
2022/01/24 03:09:24;;;;;;;12.70;11.40;;;0.90;99.90;;;1.64;100.00;99440.91;5180620;28;20316;-60
2022/01/24 03:12:04;;;;;;;11.87;10.60;;;0.90;99.90;;;1.65;100.00;99432.63;5183258;28;20229;-62
2022/01/24 03:14:38;;;;;;;11.20;10.10;;;1.00;99.90;;;1.69;100.00;99429.75;5180566;28;20225;-62
2022/01/24 03:17:11;;;;;;;11.00;9.83;;;1.10;99.90;;;1.71;100.00;99420.75;5184407;28;20712;-61
2022/01/24 03:19:44;;;;;;;12.50;11.20;;;1.10;99.90;;;1.73;100.00;99424.34;5183009;28;20222;-61
2022/01/24 03:22:17;;;;;;;13.13;11.83;;;1.10;99.90;;;1.80;100.00;99426.88;5183161;28;20229;-65
2022/01/24 03:24:52;;;;;;;12.70;11.40;;;1.10;99.90;;;1.80;100.00;99434.44;5183090;28;20217;-61
2022/01/24 03:27:25;;;;;;;12.77;11.50;;;1.10;99.90;;;1.83;100.00;99423.78;5182467;28;20686;-62
2022/01/24 03:29:58;;;;;;;13.83;12.43;;;1.10;99.90;;;1.80;100.00;99424.34;5184327;28;20218;-63
2022/01/24 03:32:31;;;;;;;14.57;13.07;;;1.10;99.90;;;1.79;100.00;99425.06;5183168;28;20218;-61
2022/01/24 03:35:07;;;;;;;13.97;11.53;;;1.20;99.90;;;1.86;100.00;99430.81;5180077;28;20222;-60
2022/01/24 03:37:40;;;;;;;13.40;12.00;;;1.20;99.90;;;1.92;100.00;99437.47;5181094;28;20228;-63
2022/01/24 03:40:15;;;;;;;12.57;11.27;;;1.20;99.90;;;1.96;100.00;99433.69;5183495;28;20240;-61
2022/01/24 03:42:48;;;;;;;11.57;10.37;;;1.20;99.90;;;1.93;100.00;99439.25;5180937;28;20229;-60
2022/01/24 03:45:35;;;;;;;11.63;10.50;;;1.20;99.90;;;1.89;100.00;99441.25;5180294;28;20226;-63
2022/01/24 03:48:11;;;;;;;11.00;9.90;;;1.20;99.90;;;1.96;100.00;99438.72;5182790;28;20233;-61
2022/01/24 03:50:44;;;;;;;12.50;11.20;;;1.20;99.90;;;1.91;99.84;99435.66;5183127;28;20711;-61
2022/01/24 03:53:17;;;;;;;12.47;10.80;;;1.20;99.90;;;1.93;100.00;99433.31;5180959;28;20222;-60
2022/01/24 03:55:52;;;;;;;12.73;11.43;;;1.20;99.90;;;1.94;100.00;99440.16;5182257;28;20219;-61
2022/01/24 03:58:25;;;;;;;13.60;12.20;;;1.20;99.90;;;1.90;100.00;99435.50;5182011;28;20224;-62
2022/01/24 04:00:58;;;;;;;13.07;11.27;;;1.20;99.90;;;1.94;100.00;99438.53;5182425;28;20740;-60
2022/01/24 04:03:32;;;;;;;11.70;10.53;;;1.30;99.90;;;1.96;100.00;99437.09;5182249;28;20702;-61
2022/01/24 04:06:07;;;;;;;11.40;10.27;;;1.30;99.90;;;2.02;100.00;99430.22;5182749;28;20225;-61
2022/01/24 04:08:40;;;;;;;13.63;12.03;;;1.30;99.90;;;2.00;100.00;99425.72;5181650;28;22041;-60
2022/01/24 04:11:14;;;;;;;13.30;11.93;;;1.30;99.90;;;2.02;100.00;99430.22;5182539;28;20229;-62
2022/01/24 04:13:57;;;;;;;13.87;12.23;;;1.30;99.90;;;2.04;100.00;99432.94;5179074;28;20241;-60
2022/01/24 04:16:32;;;;;;;12.43;11.23;;;1.30;99.90;;;2.07;100.00;99433.28;5181463;28;20678;-62
2022/01/24 04:19:27;;;;;;;13.43;12.07;;;1.30;99.90;;;2.14;100.00;99428.22;5176164;28;20226;-60
2022/01/24 04:21:57;;;;;;;13.37;12.07;;;1.30;99.90;;;2.16;99.90;99429.31;5176654;28;20222;-62
2022/01/24 04:24:30;;;;;;;13.30;11.90;;;1.40;99.90;;;2.11;100.00;99430.38;5184755;28;20702;-61
2022/01/24 04:27:06;;;;;;;12.80;11.40;;;1.40;99.90;;;2.12;100.00;99426.25;5184356;28;20230;-61
2022/01/24 04:29:39;;;;;;;13.13;11.83;;;1.40;99.90;;;2.14;100.00;99428.22;5183096;28;20225;-60
2022/01/24 04:32:12;;;;;;;13.13;11.10;;;1.40;99.90;;;2.13;100.00;99428.94;5183050;28;20218;-60
2022/01/24 04:34:45;;;;;;;12.77;11.47;;;1.40;99.90;;;2.13;100.00;99430.59;5181786;28;20223;-62
2022/01/24 04:37:18;;;;;;;13.10;11.87;;;1.40;99.90;;;2.16;99.96;99438.50;5183348;28;20229;-61
2022/01/24 04:39:51;;;;;;;11.90;10.63;;;1.40;99.90;;;2.12;100.00;99433.81;5184280;28;20214;-61
2022/01/24 04:42:35;;;;;;;13.30;12.00;;;1.40;99.90;;;2.13;99.93;99436.50;5184618;28;20230;-61
2022/01/24 04:45:27;;;;;;;12.23;10.93;;;1.40;99.90;;;2.16;100.00;99436.88;5178077;28;20226;-61
2022/01/24 04:51:07;;;;;;;12.97;11.57;;;1.40;99.90;;;2.22;99.96;99440.09;5178985;28;20225;-62
2022/01/24 04:54:14;;;;;;;11.90;10.70;;;1.50;99.90;;;2.29;99.97;99441.72;5190419;28;20242;-62
2022/01/24 04:56:45;;;;;;;12.63;11.33;;;1.40;99.90;;;2.25;100.00;99442.97;5180954;28;20222;-61
2022/01/24 04:59:20;;;;;;;11.97;10.77;;;1.50;99.90;;;2.26;99.39;99448.91;5181958;28;20222;-66
2022/01/24 05:01:53;;;;;;;12.43;11.23;;;1.50;99.90;;;2.23;99.74;99440.97;5172639;28;20701;-60
2022/01/24 05:04:26;;;;;;;11.80;10.70;;;1.50;99.90;;;2.25;100.00;99450.53;5188829;28;20229;-62
2022/01/24 05:06:59;;;;;;;11.70;10.27;;;1.50;99.90;;;2.22;100.00;99452.69;5183237;28;20222;-62
2022/01/24 05:09:38;;;;;;;12.10;10.87;;;1.50;99.90;;;2.22;100.00;99454.31;5190708;28;20223;-63
2022/01/24 05:12:18;;;;;;;11.87;10.80;;;1.50;99.90;;;2.24;100.00;99447.84;5174800;28;20222;-63
2022/01/24 05:23:30;;;;;;;12.17;10.97;;;1.50;99.90;;;2.22;100.00;99445.13;5187730;28;20596;-63
2022/01/24 05:26:06;;;;;;;10.80;9.70;;;1.50;99.90;;;2.24;100.00;99448.75;5183779;28;20226;-65
2022/01/24 05:28:39;;;;;;;12.27;11.03;;;1.50;99.90;;;2.32;100.00;99458.78;5185485;28;20225;-62
2022/01/24 05:31:14;;;;;;;12.47;10.13;;;1.50;99.90;;;2.28;99.67;99465.13;5181822;28;20258;-65
2022/01/24 05:33:47;;;;;;;11.50;10.30;;;1.50;99.90;;;2.35;99.86;99452.50;5183139;28;20218;-62
2022/01/24 05:36:20;;;;;;;11.80;10.50;;;1.50;99.90;;;2.30;100.00;99458.63;5186061;28;20227;-61
2022/01/24 05:38:53;;;;;;;11.77;10.67;;;1.50;99.90;;;2.28;100.00;99459.19;5185210;28;20226;-62
2022/01/24 05:41:27;;;;;;;11.53;10.43;;;1.50;99.90;;;2.28;100.00;99457.53;5185162;28;20640;-62
2022/01/24 05:44:00;;;;;;;13.23;10.67;;;1.40;99.90;;;2.28;100.00;99459.19;5184359;28;20237;-61
2022/01/24 05:46:35;;;;;;;11.63;10.40;;;1.50;99.90;;;2.27;100.00;99457.38;5184974;28;20254;-61
2022/01/24 05:49:08;;;;;;;12.93;11.07;;;1.50;99.90;;;2.27;100.00;99459.91;5182728;28;20226;-61
2022/01/24 05:51:41;;;;;;;11.77;10.63;;;1.50;99.90;;;2.30;100.00;99458.63;5188042;28;20214;-59
2022/01/24 05:54:14;;;;;;;11.73;10.57;;;1.50;99.90;;;2.26;100.00;99461.50;5181081;28;20231;-62
2022/01/24 05:56:47;;;;;;;12.10;11.00;;;1.60;99.90;;;2.29;100.00;99466.00;5186989;28;20218;-59
2022/01/24 05:59:20;;;;;;;12.07;10.97;;;1.50;99.90;;;2.31;100.00;99464.56;5186943;28;20223;-62
2022/01/24 06:01:55;;;;;;;13.07;11.77;;;1.60;99.90;;;2.33;100.00;99468.19;5184561;28;20313;-61
2022/01/24 06:04:28;;;;;;;12.90;11.50;;;1.60;99.90;;;2.35;100.00;99471.78;5192412;28;20229;-60
2022/01/24 06:07:01;;;;;;;14.53;13.03;;;1.60;99.90;;;2.33;100.00;99475.75;5185838;28;20232;-62
2022/01/24 06:09:34;;;;;;;14.17;12.67;;;1.60;99.90;;;2.35;100.00;99480.25;5179868;28;20225;-61
2022/01/24 06:12:10;;;;;;;14.40;13.03;;;1.60;99.90;;;2.38;100.00;99482.22;5183572;28;20227;-60
2022/01/24 06:14:43;;;;;;;15.40;13.80;;;1.70;99.90;;;2.33;100.00;99474.13;5187500;28;20222;-64
2022/01/24 06:17:17;;;;;;;15.43;13.33;;;1.60;99.90;;;2.29;100.00;99481.16;5186302;28;20226;-62
2022/01/24 06:19:50;;;;;;;15.33;13.73;;;1.60;99.90;;;2.25;100.00;99475.75;5182000;28;20589;-62
2022/01/24 06:22:23;;;;;;;14.37;12.97;;;1.60;99.90;;;2.26;100.00;99481.69;5184274;28;20689;-60
2022/01/24 06:24:56;;;;;;;14.60;13.10;;;1.60;99.90;;;2.30;100.00;99473.78;5177405;28;20228;-60
2022/01/24 06:27:45;;;;;;;14.13;12.57;;;1.60;99.90;;;2.34;100.00;99477.53;5185752;28;20217;-61
2022/01/24 06:30:19;;;;;;;13.37;11.97;;;1.60;99.90;;;2.39;100.00;99471.41;5185321;28;20223;-63
2022/01/24 06:32:53;;;;;;;13.77;12.37;;;1.60;99.90;;;2.39;100.00;99469.78;5182804;28;20218;-59
2022/01/24 06:35:26;;;;;;;14.33;13.03;;;1.70;99.90;;;2.42;100.00;99476.78;5185374;28;20218;-60
2022/01/24 06:38:00;;;;;;;14.97;11.90;;;1.60;99.90;;;2.39;99.36;99473.91;5184700;28;20215;-61
2022/01/24 06:40:35;;;;;;;14.37;12.73;;;1.60;99.90;;;2.30;99.23;99470.34;5182853;28;20253;-62
2022/01/24 06:43:08;;;;;;;13.63;12.30;;;1.60;99.90;;;2.32;99.93;99476.44;5192772;28;20223;-58
2022/01/24 06:45:41;;;;;;;13.00;11.70;;;1.60;99.90;;;2.37;99.69;99485.44;5182270;28;20227;-61
2022/01/24 06:48:16;;;;;;;13.63;12.37;;;1.70;99.90;;;2.42;99.54;99485.25;5181731;28;20313;-61
2022/01/24 06:50:49;;;;;;;15.13;13.63;;;1.70;99.90;;;2.46;99.11;99491.53;5175746;28;20309;-62
2022/01/24 06:53:22;;;;;;;14.47;13.17;;;1.70;99.90;;;2.43;99.70;99491.19;5184981;28;20233;-60
2022/01/24 06:55:55;;;;;;;14.23;12.80;;;1.70;99.90;;;2.41;100.00;99492.66;5177171;28;20219;-60
2022/01/24 06:58:29;;;;;;;13.20;11.90;;;1.70;99.90;;;2.35;98.86;99491.97;5185796;28;20306;-62
2022/01/24 07:01:02;;;;;;;12.20;11.10;;;1.70;99.90;;;2.39;99.45;99495.00;5176615;28;20226;-59
2022/01/24 07:03:37;;;;;;;12.87;11.80;;;1.70;99.90;;;2.39;99.44;99509.25;5179210;28;20222;-63
2022/01/24 07:06:10;;;;;;;13.27;12.03;;;1.70;99.90;;;2.32;99.03;99504.19;5183098;28;20694;-61
2022/01/24 07:08:43;;;;;;;12.10;11.00;;;1.60;99.90;;;2.31;99.93;99499.88;5178996;28;20228;-62
2022/01/24 07:11:16;;;;;;;11.80;10.70;;;1.60;99.90;;;2.31;98.99;99495.72;5176987;28;20226;-59
2022/01/24 07:13:50;;;;;;;13.33;12.07;;;1.60;99.90;;;2.28;99.31;99504.59;5181105;28;20694;-62
2022/01/24 07:16:25;;;;;;;12.13;10.87;;;1.50;99.90;;;2.27;99.03;99512.88;5178842;28;20223;-62
2022/01/24 07:19:02;;;;;;;12.63;11.40;;;1.50;99.90;;;2.22;98.84;99514.88;5184004;28;20222;-63
2022/01/24 07:21:35;;;;;;;12.73;11.53;;;1.40;99.90;;;2.18;99.03;99518.66;5181056;28;20230;-62
2022/01/24 07:24:08;;;;;;;12.60;11.50;;;1.40;99.90;;;2.20;99.19;99519.75;5183229;28;20219;-62
2022/01/24 07:26:41;;;;;;;13.70;12.40;;;1.40;99.90;;;2.16;99.51;99525.13;5190708;28;20686;-60
2022/01/24 07:29:14;;;;;;;14.90;13.43;;;1.40;99.90;;;2.07;98.45;99521.56;5179778;28;20226;-63
2022/01/24 07:31:48;;;;;;;14.10;12.80;;;1.30;99.90;;;2.09;99.63;99522.63;5174605;28;20226;-64
2022/01/24 07:34:23;;;;;;;14.83;13.33;;;1.40;99.90;;;2.15;99.67;99523.34;5182101;28;20324;-63
2022/01/24 07:36:57;;;;;;;13.90;12.57;;;1.40;99.90;;;2.25;99.77;99531.25;5180769;28;20228;-63
2022/01/24 07:39:31;;;;;;;15.03;13.53;;;1.50;99.90;;;2.27;99.70;99538.09;5177272;28;20792;-59
2022/01/24 07:42:16;;;;;;;14.53;13.13;;;1.60;99.90;;;2.54;99.42;99532.81;5175245;28;20221;-61
2022/01/24 07:44:49;;;;;;;13.63;12.33;;;1.80;99.90;;;2.58;99.04;99522.38;5176345;28;20218;-63
2022/01/24 07:47:22;;;;;;;15.07;13.53;;;1.90;99.90;;;2.58;98.33;99532.47;5178260;28;20258;-61
2022/01/24 07:49:57;;;;;;;14.00;12.70;;;1.90;99.90;;;2.65;98.34;99528.25;5174298;28;20222;-62
2022/01/24 07:52:30;;;;;;;13.90;12.60;;;2.00;99.90;;;2.77;98.18;99536.34;5179342;28;20594;-62
2022/01/24 07:55:03;;;;;;;13.60;12.10;;;2.10;99.90;;;2.93;98.16;99523.84;5174367;28;20311;-62
2022/01/24 07:57:36;;;;;;;14.73;13.33;;;2.20;99.90;;;3.01;97.67;99532.28;5182907;28;20224;-60
2022/01/24 08:00:12;;;;;;;14.90;13.50;;;2.30;99.90;;;3.20;97.52;99535.25;5177783;28;20220;-61
2022/01/24 08:02:45;;;;;;;13.27;11.97;;;2.50;99.90;;;3.34;97.49;99530.13;5170922;28;20586;-57
2022/01/24 08:05:19;;;;;;;14.80;12.37;;;2.60;99.90;;;3.48;96.81;99530.03;5185267;28;20234;-59
2022/01/24 08:07:52;;;;;;;14.57;13.27;;;2.80;99.90;;;3.65;96.20;99534.44;5184369;28;20224;-61
2022/01/24 08:10:25;;;;;;;14.83;13.27;;;2.90;99.90;;;3.88;94.05;99534.44;5181134;28;20232;-60
2022/01/24 08:12:58;;;;;;;14.17;12.73;;;3.00;99.90;;;4.05;92.99;99537.19;5175066;28;20226;-62
2022/01/24 08:15:32;;;;;;;13.07;11.87;;;3.10;99.90;;;4.09;92.73;99540.03;5174694;28;20223;-61
2022/01/24 08:18:05;;;;;;;13.60;12.33;;;3.20;99.90;;;4.16;92.47;99542.53;5178995;28;20233;-61
2022/01/24 08:20:39;;;;;;;14.00;12.63;;;3.30;99.90;;;4.24;92.21;99539.19;5186273;28;20224;-62
2022/01/24 08:23:13;;;;;;;13.43;12.13;;;3.40;99.90;;;4.32;91.92;99542.53;5182345;28;20222;-61
2022/01/24 08:25:46;;;;;;;12.53;11.43;;;3.50;99.90;;;4.41;91.58;99541.03;5182810;28;20234;-63
2022/01/24 08:28:19;;;;;;;12.97;11.73;;;3.60;99.90;;;4.51;90.86;99547.22;5176643;28;20233;-62
2022/01/24 08:30:54;;;;;;;12.20;11.00;;;3.70;99.90;;;4.67;89.50;99536.22;5178624;28;20218;-62
2022/01/24 08:33:27;;;;;;;13.00;11.80;;;3.80;99.90;;;4.73;88.77;99532.69;5178035;28;20250;-62
2022/01/24 08:36:01;;;;;;;12.87;11.67;;;4.00;99.90;;;4.82;89.15;99527.72;5183115;28;20226;-61
2022/01/24 08:38:36;;;;;;;13.13;11.93;;;4.10;99.90;;;4.94;89.19;99523.94;5182581;28;20221;-65
2022/01/24 08:41:15;;;;;;;14.20;12.90;;;4.30;99.90;;;5.22;87.20;99516.72;5180867;28;20226;-63
2022/01/24 08:43:58;;;;;;;15.80;14.33;;;4.40;99.90;;;5.36;86.37;99531.72;5179126;28;20229;-62
2022/01/24 08:46:31;;;;;;;18.17;16.37;;;4.40;99.90;;;5.41;85.41;99535.63;5186938;28;20248;-59
2022/01/24 08:49:05;;;;;;;17.23;15.43;;;4.50;99.90;;;5.34;85.68;99539.91;5181550;28;20644;-63
2022/01/24 08:51:39;;;;;;;16.57;14.93;;;4.60;99.90;;;5.47;85.28;99544.63;5184422;28;20325;-62
2022/01/24 08:54:33;;;;;;;16.90;15.00;;;4.70;99.90;;;5.42;85.41;99542.50;5187062;28;20230;-63
2022/01/24 08:57:07;;;;;;;15.33;13.90;;;4.70;99.90;;;5.48;84.11;99546.41;5184565;28;20704;-65
2022/01/24 08:59:41;;;;;;;13.67;12.47;;;4.80;99.90;;;5.57;84.68;99542.28;5181354;28;20217;-64
2022/01/24 09:02:14;;;;;;;14.53;13.23;;;4.80;99.90;;;5.80;83.44;99535.41;5184798;28;20315;-62
2022/01/24 09:04:48;;;;;;;14.97;13.57;;;4.90;99.90;;;5.92;82.65;99535.75;5181275;28;20623;-59
2022/01/24 09:07:23;;;;;;;14.37;13.03;;;5.00;99.90;;;5.89;81.70;99532.91;5201772;28;20226;-63
2022/01/24 09:09:56;;;;;;;11.63;10.63;;;5.10;99.90;;;5.94;79.32;99526.69;5190517;28;20232;-61
2022/01/24 09:12:34;;;;;;;10.83;9.93;;;5.10;99.90;;;5.99;79.62;99524.63;5187865;28;20222;-60
2022/01/24 09:15:08;;;;;;;11.63;10.63;;;5.20;99.90;;;6.08;78.81;99535.72;5185214;28;20763;-65
2022/01/24 09:17:44;;;;;;;12.50;11.50;;;5.30;99.90;;;6.05;78.65;99532.88;5188832;28;20217;-63
2022/01/24 09:20:17;;;;;;;14.43;13.00;;;5.30;99.90;;;5.88;76.45;99537.09;5183089;28;20756;-62
2022/01/24 09:22:51;;;;;;;14.13;12.83;;;5.20;99.90;;;5.84;77.86;99535.00;5185151;28;20229;-61
2022/01/24 09:25:25;;;;;;;14.47;13.27;;;5.10;99.90;;;5.91;79.80;99530.53;5180984;28;20225;-62
2022/01/24 09:27:58;;;;;;;14.00;12.77;;;5.30;99.90;;;6.02;79.03;99527.50;5179959;28;20214;-62
2022/01/24 09:30:31;;;;;;;13.07;11.87;;;5.40;99.90;;;6.14;79.47;99527.84;5188618;28;20690;-59
2022/01/24 09:33:05;;;;;;;12.10;11.00;;;5.60;99.90;;;6.20;76.79;99525.91;5206115;28;20222;-63
2022/01/24 09:35:38;;;;;;;13.37;12.07;;;5.50;99.90;;;6.32;78.05;99528.06;5193936;28;20666;-62
2022/01/24 09:38:13;;;;;;;10.40;9.50;;;5.70;99.90;;;6.43;75.05;99530.75;5186796;28;20229;-63
2022/01/24 09:40:46;;;;;;;10.00;9.00;;;5.90;99.90;;;6.49;73.96;99521.19;5186347;28;20226;-63
2022/01/24 09:43:19;;;;;;;12.13;11.13;;;5.90;99.90;;;6.53;74.52;99523.31;5187192;28;20669;-61
2022/01/24 09:45:52;;;;;;;9.00;8.27;;;6.00;99.90;;;6.41;73.10;99517.00;5180598;28;20223;-61
2022/01/24 09:48:26;;;;;;;9.03;8.30;;;5.70;99.90;;;6.62;71.81;99524.22;5185217;28;20244;-63
2022/01/24 09:51:00;;;;;;;9.37;8.67;;;6.00;99.90;;;6.58;73.08;99522.16;5185425;28;20210;-63
2022/01/24 09:53:37;;;;;;;8.27;7.53;;;6.00;99.90;;;6.46;72.48;99519.25;5187449;28;20321;-60
2022/01/24 09:56:10;;;;;;;7.60;7.00;;;6.00;99.90;;;6.26;70.47;99522.34;5179941;28;20225;-63
2022/01/24 09:58:43;;;;;;;6.90;6.30;;;5.80;99.90;;;6.53;70.67;99518.25;5186502;28;20218;-61
2022/01/24 10:01:18;;;;;;;7.67;6.97;;;5.90;99.90;;;6.61;71.43;99516.44;5184857;28;20226;-61
2022/01/24 10:04:16;;;;;;;7.33;6.73;;;6.10;99.90;;;6.63;71.11;99523.47;5201086;28;20312;-59
2022/01/24 10:07:02;;;;;;;6.97;6.37;;;6.20;99.90;;;6.39;72.07;99518.50;5184060;28;20222;-60
2022/01/24 10:09:40;;;;;;;6.37;5.87;;;5.90;99.90;;;6.55;69.19;99526.88;5196215;28;20594;-63
2022/01/24 10:12:29;;;;;;;6.67;6.13;;;6.10;99.90;;;6.22;70.25;99525.31;5189224;28;20221;-61
2022/01/24 10:18:02;;;;;;;6.00;5.50;;;5.90;99.90;;;6.58;70.48;99511.06;5186689;28;20477;-61
2022/01/24 10:20:38;;;;;;;6.43;5.93;;;6.20;99.90;;;6.71;70.41;99520.03;5183966;28;20225;-62
2022/01/24 10:23:16;;;;;;;6.77;6.17;;;6.30;99.90;;;6.57;69.70;99515.25;5185492;28;20225;-65
2022/01/24 10:25:55;;;;;;;5.70;5.30;;;6.10;99.90;;;6.52;70.43;99516.41;5188031;28;20243;-63
2022/01/24 10:28:32;;;;;;;6.10;5.63;;;6.20;99.90;;;6.49;69.10;99514.47;5184577;28;20222;-63
2022/01/24 10:31:12;;;;;;;5.90;5.40;;;6.00;99.90;;;6.66;70.89;99513.59;5177488;28;20258;-62
2022/01/24 10:34:06;;;;;;;6.43;5.97;;;6.10;99.90;;;6.82;69.44;99497.34;5182847;28;20300;-62
2022/01/24 10:36:42;;;;;;;6.10;5.60;;;6.30;99.90;;;6.94;67.97;99493.44;5176995;28;20215;-62
2022/01/24 10:39:31;;;;;;;6.83;6.33;;;6.60;99.90;;;6.77;70.96;99489.25;5184594;28;20226;-59
2022/01/24 10:42:32;;;;;;;7.20;6.60;;;6.40;99.90;;;6.89;68.96;99492.09;5179891;28;20705;-60
2022/01/24 10:45:15;;;;;;;5.67;5.23;;;6.50;99.90;;;6.74;68.15;99501.66;5176764;28;20226;-64
2022/01/24 10:47:54;;;;;;;6.13;4.90;;;6.30;99.90;;;6.86;68.42;99500.31;5177559;28;20223;-61
2022/01/24 10:50:31;;;;;;;6.20;5.70;;;6.40;99.90;;;6.74;68.81;99497.47;5193921;28;20226;-61
2022/01/24 10:53:12;;;;;;;5.60;5.10;;;6.30;99.90;;;6.95;68.72;99490.16;5183963;28;20647;-63
2022/01/24 10:55:51;;;;;;;5.93;5.50;;;6.50;99.90;;;7.04;66.56;99485.06;5176722;28;20575;-63
2022/01/24 10:58:36;;;;;;;5.77;5.27;;;6.70;99.90;;;6.99;68.94;99487.19;5181390;28;20222;-63
2022/01/24 11:01:09;;;;;;;5.60;5.20;;;6.60;99.90;;;6.81;68.63;99486.28;5179966;28;20218;-60
2022/01/24 11:03:42;;;;;;;5.13;4.73;;;6.40;99.90;;;6.84;68.35;99485.66;5184779;28;20253;-62
2022/01/24 11:06:28;;;;;;;5.87;5.40;;;6.40;99.90;;;6.93;67.28;99486.59;5181867;28;20278;-56
2022/01/24 11:09:22;;;;;;;5.87;5.30;;;6.60;99.90;;;6.95;68.02;99482.53;5184795;28;20232;-61
2022/01/24 11:11:57;;;;;;;5.40;4.90;;;6.60;99.90;;;6.92;67.72;99477.16;5183705;28;20226;-62
2022/01/24 11:14:32;;;;;;;5.53;5.13;;;6.50;99.90;;;6.87;67.07;99478.38;5180836;28;20224;-62
2022/01/24 11:17:07;;;;;;;5.13;4.83;;;6.40;99.90;;;7.05;67.50;99471.63;5186902;28;20228;-64
2022/01/24 11:19:44;;;;;;;5.00;4.60;;;6.60;99.90;;;7.10;66.96;99468.78;5183134;28;20236;-60
2022/01/24 11:22:23;;;;;;;5.07;4.67;;;6.60;99.90;;;7.10;67.57;99470.44;5183127;28;20237;-66
2022/01/24 11:25:01;;;;;;;5.23;4.70;;;6.70;99.90;;;7.01;67.60;99467.91;5176789;28;20223;-63
2022/01/24 11:27:47;;;;;;;5.23;4.83;;;6.60;99.90;;;7.05;68.79;99457.25;5182667;28;20773;-62
2022/01/24 11:30:25;;;;;;;5.30;4.90;;;6.60;99.90;;;7.02;68.93;99456.97;5182005;28;20222;-63
2022/01/24 11:33:04;;;;;;;4.70;4.40;;;6.70;99.90;;;7.25;66.11;99453.19;5185947;28;20673;-64
2022/01/24 11:35:41;;;;;;;4.80;4.40;;;6.70;99.90;;;7.34;66.76;99466.78;5180251;28;20315;-61
2022/01/24 11:38:28;;;;;;;4.87;4.53;;;6.90;99.90;;;7.27;67.72;99461.84;5192071;28;20700;-63
2022/01/24 11:41:05;;;;;;;4.63;4.30;;;6.90;99.90;;;7.47;66.74;99467.22;5178916;28;20305;-61
2022/01/24 11:43:43;;;;;;;4.87;4.37;;;7.00;99.90;;;7.54;64.77;99461.06;5184849;28;20226;-63
2022/01/24 11:46:41;;;;;;;4.80;4.40;;;7.10;99.90;;;7.56;65.36;99457.91;5185781;28;20222;-65
2022/01/24 11:49:18;;;;;;;4.30;3.90;;;7.10;99.90;;;7.45;65.32;99449.25;5176206;28;20300;-62
2022/01/24 11:52:03;;;;;;;4.50;4.10;;;7.00;99.90;;;7.41;65.05;99453.88;5175265;28;20219;-64
2022/01/24 11:54:49;;;;;;;4.67;4.30;;;7.00;99.90;;;7.42;64.75;99451.50;5184177;28;20321;-63